x

Boston 16 Nm East Of Boston, Ma (44013) Wave Buoy

10:50 - Sat 13th Feb 2016 All times are EST. -5 hours from GMT.

  • Sig Wave height 3.3ft
  • Swell Direction
  • Peak Period 4s
  • Average Period 4s
  • Wind
    25mph, 31mph gusts
  • Sea Temp 41°f
  • Air Temp 23°f
  • Sea Pressure 1009.3mb
  • Boston 16 Nm East Of Boston, Ma
  • Boston 16 Nm East Of Boston, Ma

More Historic Weather Station data

Upgrade to MSW Pro to gain access to the past 30 days of data for over 8000 Wavebouys and Weather Stations around the globe.

Join Pro

Comparision Forecast

View Surf forecast
   
sam. 02/13 10:50 3.5ft 4s 4s 25 31 mph 1009.3mb 41f 23f
9:50 3ft 4s 4s 25 34 mph 1009mb 41f 23f
8:50 2ft 3s 3s 22 27 mph 1008.8mb 41f 23f
7:50 1.3ft 11s 3s 18 22 mph 1008.9mb 41f 23f
6:50 1.3ft 3s 3s 11 18 mph 1008.9mb 40f 23f
5:50 1.3ft 3s 3s 11 16 mph 1008.9mb 40f 23f
4:50 1.3ft 10s 3s 13 18 mph 1008.8mb 40f 23f
3:50 1ft 10s 4s 11 16 mph 1008.9mb 40f 24f
2:50 1ft 11s 5s 9 13 mph 1009.5mb 40f 23f
1:50 1ft 11s 4s 7 9 mph 1010.6mb 40f 22f
12:50 1.3ft 3s 3s 9 13 mph 1011.7mb 40f 22f
ven. 02/12 11:50 1.3ft 11s 4s 11 16 mph 1012.8mb 40f 23f
10:50 1.3ft 3s 3s 13 18 mph 1013.3mb 40f 23f
9:50 1.3ft 12s 3s 13 18 mph 1013.8mb 40f 24f
8:50 1.3ft 11s 4s 13 20 mph 1014.8mb 40f 23f
7:50 1.3ft 12s 4s 16 20 mph 1015.9mb 40f 24f
6:50 1.3ft 11s 4s 13 16 mph 1017mb 40f 24f
5:50 1.6ft 12s 4s 13 20 mph 1017.2mb 41f 23f
4:50 1.3ft 11s 4s 13 18 mph 1017.4mb 41f 24f
3:50 1.3ft 12s 4s 11 18 mph 1017.8mb 41f 24f
2:50 1.3ft 12s 4s 9 13 mph 1018.1mb 41f 23f
1:50 1.3ft 11s 4s 11 16 mph 1018.7mb 41f 22f
12:50 1.6ft 3s 4s 11 18 mph 1019.6mb 41f 19f
11:50 2ft 3s 4s 13 18 mph 1020.6mb 41f 18f
10:50 2ft 4s 3s 16 20 mph 1021.7mb 40f 15f
9:50 2.5ft 4s 4s 18 25 mph 1021.9mb 40f 14f
8:50 2.5ft 4s 4s 20 27 mph 1022.6mb 40f 14f
7:50 3ft 4s 4s 20 27 mph 1022.6mb 40f 12f
6:50 2.5ft 4s 4s 22 29 mph 1021.8mb 40f 12f
5:50 3.5ft 4s 4s 25 29 mph 1021.2mb 40f 11f
4:50 3.5ft 4s 4s 29 36 mph 1020.3mb 40f 13f
3:50 4ft 4s 4s 27 36 mph 1019.4mb 41f 12f
2:50 4.5ft 5s 4s 29 36 mph 1018.3mb 40f 13f
1:50 4.5ft 5s 4s 31 38 mph 1017.2mb 40f 14f
12:50 4.5ft 5s 4s 27 38 mph 1016.1mb 40f 15f
jeu. 02/11 11:50 4.5ft 5s 4s 27 34 mph 1015.4mb 41f 16f
10:50 4.5ft 5s 4s 29 36 mph 1014.6mb 41f 16f
9:50 5ft 5s 4s 29 43 mph 1014mb 40f 17f
8:50 4.5ft 5s 4s 31 40 mph 1013mb 40f 18f
7:50 5ft 5s 4s 31 38 mph 1011.9mb 40f 20f
6:50 5ft 5s 4s 31 38 mph 1010.4mb 41f 22f
5:50 5ft 5s 4s 34 40 mph 1008.7mb 41f 23f
4:50 3.5ft 5s 4s 31 38 mph 1007mb 41f 26f
3:50 4ft 4s 4s 27 34 mph 1006.3mb 41f 26f
2:50 3.5ft 4s 4s 27 31 mph 1005.3mb 41f 26f
1:50 3ft 4s 4s 27 34 mph 1004.7mb 41f 27f
12:50 2.5ft 12s 4s 22 27 mph 1004.9mb 41f 27f
11:50 3ft 4s 4s 22 27 mph 1005.3mb 41f 25f
10:50 3ft 11s 4s 20 25 mph 1005.9mb 41f 26f
9:50 2.5ft 4s 4s 20 25 mph 1005.5mb 41f 28f
8:50 2.5ft 11s 4s 20 25 mph 1005.5mb 41f 28f
7:50 2.5ft 10s 5s 13 18 mph 1005.2mb 41f 28f
6:50 2.5ft 10s 4s 16 20 mph 1004.8mb 41f 29f
5:50 2.5ft 3s 4s 20 22 mph 1004.4mb 41f 30f
4:50 3ft 11s 4s 18 22 mph 1004mb 41f 31f
3:50 3ft 11s 4s 20 25 mph 1003.3mb 41f 31f
2:50 3.5ft 11s 4s 20 25 mph 1003.2mb 41f 33f
1:50 3.5ft 11s 4s 22 27 mph 1003mb 41f 33f
12:50 3ft 11s 4s 20 25 mph 1003.1mb 41f 33f
mer. 02/10 11:50 3ft 11s 4s 22 27 mph 1003.2mb 41f 34f
10:50 3ft 11s 4s 20 25 mph 1002.9mb 41f 35f
9:50 3.5ft 11s 4s 25 29 mph 1002.7mb 41f 36f
8:50 3ft 8s 5s 20 22 mph 1002.6mb 41f 36f
7:50 3ft 11s 7s 16 18 mph 1002.7mb 41f 36f
6:50 3.5ft 12s 8s 13 16 mph 1002.7mb 41f 35f
5:50 3.5ft 11s 9s 11 13 mph 1002.5mb 41f 35f
4:50 3.5ft 11s 9s 7 9 mph 1001.7mb 41f 34f
3:50 3.5ft 11s 9s 7 9 mph 1001mb 41f 34f
2:50 3.5ft 11s 9s 4 7 mph 1000.6mb 41f 34f
1:50 3.5ft 12s 9s 4
mph
1000.5mb 41f 33f
12:50 3.5ft 11s 8s 4 7 mph 1000.6mb 41f 33f
11:50 4ft 11s 8s 4 7 mph 1001.4mb 41f 32f
10:50 3.5ft 8s 7s 7 11 mph 1002.4mb 41f 32f
9:50 4ft 11s 8s 9 11 mph 1002.8mb 41f 31f
8:50 4ft 11s 8s 9 11 mph 1003.1mb 41f 31f
7:50 4ft 11s 8s 9 11 mph 1003.3mb 41f 31f
6:50 5ft 12s 9s 7 9 mph 1003.2mb 41f 31f
5:50 4.5ft 11s 8s 9 11 mph 1002.8mb 40f 31f
4:50 4.5ft 11s 8s 9 11 mph 1002.7mb 40f 30f
3:50 5.5ft 12s 9s 4 7 mph 1002.2mb 40f 30f
2:50 5ft 13s 8s 2
mph
1002.4mb 41f 30f
1:50 5ft 12s 8s 4 7 mph 1002.5mb 41f 30f
12:50 5.5ft 13s 8s 7 11 mph 1002.1mb 41f 30f
mar. 02/09 11:50 6ft 13s 8s 7 11 mph 1002.4mb 41f 30f
10:50 6.5ft 13s 8s 7 11 mph 1002.6mb 41f 30f
9:50 6ft 13s 8s 2 7 mph 1003mb 41f 29f
8:50 7ft 14s 8s 7 11 mph 1003.1mb 41f 30f
7:50 7ft 14s 8s 4 11 mph 1002.9mb 41f 30f
6:50 8ft 11s 8s 7 11 mph 1003mb 41f 30f
5:50 9ft 11s 9s 9 11 mph 1002.9mb 41f 29f
4:50 8ft 11s 8s 9 13 mph 1002.2mb 41f 29f